Time;durP1;ratioP1;P1;durP2;ratioP2;P2;SDS_P1;SDS_P2;PMS_P1;PMS_P2;Temp;Humidity;BMP_temperature;BMP_pressure;BME280_temperature;BME280_humidity;BME280_pressure;Samples;Min_cycle;Max_cycle;Signal;HPM_P1;HPM_P2
2024/01/28 00:00:09;;;;;;;27.65;10.93;;;;;;;-2.83;100.00;103241.19;1046793;28;20369;-48
2024/01/28 00:00:43;;;;;;;21.05;10.00;;;;;;;-2.86;100.00;103242.19;1045323;28;20654;-48
2024/01/28 00:01:16;;;;;;;19.08;11.02;;;;;;;-2.95;100.00;103245.22;1047063;28;20706;-48
2024/01/28 00:01:47;;;;;;;16.95;10.27;;;;;;;-2.99;100.00;103243.66;1046895;28;20302;-49
2024/01/28 00:02:20;;;;;;;21.25;10.70;;;;;;;-2.97;100.00;103246.19;1046972;28;20395;-49
2024/01/28 00:02:52;;;;;;;15.10;10.77;;;;;;;-2.89;100.00;103239.72;1046547;28;20301;-48
2024/01/28 00:03:23;;;;;;;18.92;11.95;;;;;;;-2.93;100.00;103243.38;1042258;28;20346;-48
2024/01/28 00:03:55;;;;;;;20.85;11.38;;;;;;;-2.88;100.00;103236.19;1042607;28;20327;-49
2024/01/28 00:04:27;;;;;;;24.13;11.02;;;;;;;-2.83;100.00;103239.44;1038285;28;20324;-48
2024/01/28 00:04:59;;;;;;;18.70;10.82;;;;;;;-2.81;100.00;103237.59;1039120;28;20291;-48
2024/01/28 00:05:31;;;;;;;21.33;11.50;;;;;;;-2.82;100.00;103238.50;1043014;28;20386;-48
2024/01/28 00:06:03;;;;;;;15.80;10.07;;;;;;;-2.74;100.00;103237.31;1036212;28;20403;-48
2024/01/28 00:06:35;;;;;;;16.58;10.43;;;;;;;-2.75;100.00;103236.47;1042240;28;20303;-48
2024/01/28 00:07:07;;;;;;;14.68;9.82;;;;;;;-3.00;100.00;103231.53;1042410;28;20310;-49
2024/01/28 00:07:39;;;;;;;15.23;10.73;;;;;;;-2.93;100.00;103232.94;1043350;28;20299;-48
2024/01/28 00:08:10;;;;;;;17.85;10.80;;;;;;;-2.89;100.00;103231.03;1046859;28;20661;-48
2024/01/28 00:08:42;;;;;;;16.65;10.38;;;;;;;-3.02;100.00;103225.53;1042397;28;20303;-48
2024/01/28 00:09:13;;;;;;;13.43;8.63;;;;;;;-2.91;100.00;103235.47;1042496;28;20704;-48
2024/01/28 00:09:45;;;;;;;13.35;9.82;;;;;;;-2.98;100.00;103229.72;1042634;28;20327;-48
2024/01/28 00:10:17;;;;;;;14.60;9.43;;;;;;;-2.99;100.00;103219.34;1043110;28;20302;-49
2024/01/28 00:10:49;;;;;;;16.35;10.35;;;;;;;-2.94;100.00;103228.66;1047278;28;20386;-50
2024/01/28 00:11:20;;;;;;;16.15;9.30;;;;;;;-2.93;100.00;103225.13;1046825;28;20298;-49
2024/01/28 00:11:52;;;;;;;20.52;12.23;;;;;;;-3.07;100.00;103224.03;1046603;28;20309;-49
2024/01/28 00:12:24;;;;;;;18.98;10.85;;;;;;;-3.11;100.00;103225.94;1047451;28;20386;-48
2024/01/28 00:12:56;;;;;;;15.25;10.57;;;;;;;-3.06;100.00;103231.78;1046872;28;20634;-49
2024/01/28 00:13:28;;;;;;;17.23;9.93;;;;;;;-2.90;100.00;103227.59;1047191;28;20661;-47
2024/01/28 00:14:00;;;;;;;20.80;10.85;;;;;;;-2.95;100.00;103223.50;1047462;28;20305;-49
2024/01/28 00:14:32;;;;;;;16.92;11.25;;;;;;;-2.98;100.00;103218.44;1047395;28;20352;-47
2024/01/28 00:15:04;;;;;;;17.73;11.27;;;;;;;-2.98;100.00;103224.50;1047554;28;20325;-48
2024/01/28 00:15:36;;;;;;;18.55;11.73;;;;;;;-3.00;100.00;103221.13;1046494;28;20641;-46
2024/01/28 00:16:15;;;;;;;18.77;12.25;;;;;;;-2.80;100.00;103215.81;1047324;28;20310;-48
2024/01/28 00:16:48;;;;;;;14.80;11.32;;;;;;;-2.84;100.00;103214.25;1047395;28;20295;-47
2024/01/28 00:17:20;;;;;;;21.50;13.85;;;;;;;-2.85;100.00;103215.19;1047415;28;20299;-48
2024/01/28 00:17:57;;;;;;;24.17;13.07;;;;;;;-2.77;100.00;103211.38;1047509;28;20642;-48
2024/01/28 00:18:30;;;;;;;20.88;12.20;;;;;;;-2.74;100.00;103213.81;1047410;28;20294;-49
2024/01/28 00:19:01;;;;;;;20.95;12.27;;;;;;;-2.73;100.00;103210.34;1047083;28;20695;-46
2024/01/28 00:19:33;;;;;;;17.98;12.15;;;;;;;-2.75;100.00;103219.97;1047748;28;20279;-50
2024/01/28 00:20:06;;;;;;;24.98;11.38;;;;;;;-2.71;100.00;103211.09;1047626;28;20291;-48
2024/01/28 00:20:37;;;;;;;18.55;12.20;;;;;;;-2.80;100.00;103208.00;1046970;28;20307;-48
2024/01/28 00:21:09;;;;;;;18.98;10.43;;;;;;;-2.75;100.00;103212.13;1047358;28;20648;-48
2024/01/28 00:21:41;;;;;;;21.67;12.07;;;;;;;-2.73;100.00;103215.56;1047412;28;20298;-47
2024/01/28 00:22:13;;;;;;;16.73;10.60;;;;;;;-2.67;100.00;103217.88;1047057;28;20649;-49
2024/01/28 00:22:44;;;;;;;14.95;9.93;;;;;;;-2.80;100.00;103218.41;1047005;28;20388;-50
2024/01/28 00:23:16;;;;;;;14.02;9.27;;;;;;;-2.73;100.00;103213.78;1047171;28;20299;-50
2024/01/28 00:23:48;;;;;;;13.40;9.98;;;;;;;-2.73;100.00;103220.75;1047280;28;20765;-50
2024/01/28 00:24:20;;;;;;;25.10;10.93;;;;;;;-2.86;100.00;103207.44;1047296;28;20305;-49
2024/01/28 00:24:52;;;;;;;16.55;9.02;;;;;;;-2.97;100.00;103220.97;1047655;28;20768;-47
2024/01/28 00:25:24;;;;;;;14.95;10.30;;;;;;;-2.85;100.00;103211.72;1046431;28;20313;-50
2024/01/28 00:25:55;;;;;;;16.00;9.80;;;;;;;-2.91;100.00;103220.69;1042174;28;20295;-48
2024/01/28 00:26:27;;;;;;;18.80;9.57;;;;;;;-3.05;100.00;103223.06;1042975;28;20299;-48
2024/01/28 00:26:59;;;;;;;14.48;9.35;;;;;;;-3.02;100.00;103222.06;1042845;28;20660;-48
2024/01/28 00:27:30;;;;;;;14.75;9.32;;;;;;;-3.00;100.00;103218.50;1038212;28;20319;-47
2024/01/28 00:28:02;;;;;;;14.30;9.15;;;;;;;-2.94;100.00;103215.63;1042435;28;20307;-49
2024/01/28 00:28:34;;;;;;;15.57;9.57;;;;;;;-2.90;100.00;103219.78;1043235;28;20291;-50
2024/01/28 00:29:06;;;;;;;12.27;8.65;;;;;;;-2.82;100.00;103222.00;1042940;28;20816;-49
2024/01/28 00:29:38;;;;;;;11.77;8.93;;;;;;;-2.90;100.00;103219.78;1039372;28;20311;-47
2024/01/28 00:30:10;;;;;;;14.82;9.43;;;;;;;-3.01;100.00;103219.44;1042589;28;20393;-48
2024/01/28 00:30:42;;;;;;;14.15;10.32;;;;;;;-3.03;100.00;103218.63;1042789;28;20299;-47
2024/01/28 00:31:13;;;;;;;11.52;8.93;;;;;;;-3.01;100.00;103214.22;1043358;28;20299;-49
2024/01/28 00:31:46;;;;;;;11.02;8.07;;;;;;;-3.05;100.00;103217.00;1046988;28;20385;-49
2024/01/28 00:32:19;;;;;;;14.63;9.30;;;;;;;-3.01;100.00;103214.22;1046975;28;20820;-48
2024/01/28 00:32:51;;;;;;;13.68;9.88;;;;;;;-2.92;100.00;103212.94;1047039;28;20313;-51
2024/01/28 00:33:22;;;;;;;12.68;8.23;;;;;;;-2.87;100.00;103211.81;1045969;28;20326;-49
2024/01/28 00:33:54;;;;;;;15.93;8.27;;;;;;;-2.93;100.00;103212.09;1047592;28;20306;-49
2024/01/28 00:34:26;;;;;;;17.45;9.48;;;;;;;-2.93;100.00;103206.88;1047777;28;20660;-48
2024/01/28 00:34:58;;;;;;;17.05;8.93;;;;;;;-2.84;100.00;103205.59;1047143;28;20283;-48
2024/01/28 00:35:30;;;;;;;20.73;10.38;;;;;;;-2.76;100.00;103207.84;1042311;28;20342;-47
2024/01/28 00:36:02;;;;;;;13.45;9.38;;;;;;;-2.78;100.00;103205.31;1042917;28;20660;-47
2024/01/28 00:36:34;;;;;;;16.25;9.27;;;;;;;-2.72;100.00;103204.19;1042794;28;20796;-49
2024/01/28 00:37:06;;;;;;;14.48;9.65;;;;;;;-2.75;100.00;103199.09;1043214;28;20291;-51
2024/01/28 00:37:37;;;;;;;18.77;10.38;;;;;;;-2.68;100.00;103203.13;1047366;28;20306;-50
2024/01/28 00:38:09;;;;;;;11.63;9.90;;;;;;;-2.82;100.00;103209.81;1047220;28;20294;-47
2024/01/28 00:38:41;;;;;;;17.27;9.73;;;;;;;-2.86;100.00;103195.25;1043019;28;20382;-48
2024/01/28 00:39:13;;;;;;;18.77;10.02;;;;;;;-2.82;100.00;103199.38;1040915;28;20810;-49
2024/01/28 00:39:45;;;;;;;18.45;9.90;;;;;;;-2.65;100.00;103197.78;1042743;28;20678;-49
2024/01/28 00:40:17;;;;;;;16.38;10.30;;;;;;;-2.53;100.00;103205.84;1043621;28;20299;-48
2024/01/28 00:40:49;;;;;;;17.92;9.68;;;;;;;-2.55;100.00;103197.25;1048239;28;20294;-48
2024/01/28 00:41:22;;;;;;;16.98;9.07;;;;;;;-2.58;100.00;103201.78;1047884;28;20369;-48
2024/01/28 00:41:54;;;;;;;17.40;9.80;;;;;;;-2.48;100.00;103197.78;1047821;28;20400;-48
2024/01/28 00:42:26;;;;;;;13.80;9.48;;;;;;;-2.51;100.00;103197.94;1048086;28;20299;-49
2024/01/28 00:42:57;;;;;;;18.85;9.90;;;;;;;-2.50;100.00;103200.47;1047621;28;21628;-48
2024/01/28 00:43:29;;;;;;;14.10;9.50;;;;;;;-2.56;100.00;103195.56;1048137;28;20377;-48
2024/01/28 00:44:01;;;;;;;12.68;8.50;;;;;;;-2.69;100.00;103191.00;1048475;28;20648;-47
2024/01/28 00:44:33;;;;;;;15.93;8.93;;;;;;;-2.72;100.00;103192.00;1048012;28;20299;-49
2024/01/28 00:45:05;;;;;;;15.63;9.90;;;;;;;-2.75;100.00;103192.13;1043502;28;20390;-48
2024/01/28 00:45:39;;;;;;;12.90;9.50;;;;;;;-3.01;100.00;103200.28;1043564;28;20872;-48
2024/01/28 00:46:10;;;;;;;23.63;10.43;;;;;;;-2.86;100.00;103194.38;1043001;28;20322;-48
2024/01/28 00:46:42;;;;;;;15.27;9.27;;;;;;;-2.77;100.00;103198.31;1044507;28;20295;-49
2024/01/28 00:47:14;;;;;;;15.85;9.60;;;;;;;-2.89;100.00;103198.00;1047862;28;20295;-48
2024/01/28 00:47:45;;;;;;;12.63;8.75;;;;;;;-3.19;100.00;103195.03;1047734;28;21000;-48
2024/01/28 00:48:17;;;;;;;21.95;9.70;;;;;;;-3.04;100.00;103197.84;1047926;28;20781;-49
2024/01/28 00:48:49;;;;;;;14.23;9.95;;;;;;;-2.90;100.00;103200.66;1048130;28;20307;-47
2024/01/28 00:49:29;;;;;;;15.82;9.20;;;;;;;-2.88;100.00;103204.06;1048344;28;20290;-50
2024/01/28 00:50:01;;;;;;;12.38;8.55;;;;;;;-3.11;100.00;103197.28;1047364;28;20836;-49
2024/01/28 00:50:32;;;;;;;15.75;10.50;;;;;;;-2.97;100.00;103194.06;1047934;28;20298;-47
2024/01/28 00:51:04;;;;;;;15.52;10.23;;;;;;;-2.96;100.00;103191.38;1047963;28;20355;-49
2024/01/28 00:51:36;;;;;;;16.70;10.63;;;;;;;-2.96;100.00;103191.38;1048522;28;20321;-48
2024/01/28 00:52:08;;;;;;;21.20;10.38;;;;;;;-2.88;100.00;103191.00;1041505;28;20666;-48
2024/01/28 00:52:39;;;;;;;16.70;9.20;;;;;;;-2.91;100.00;103189.41;1043473;28;20373;-49
2024/01/28 00:53:11;;;;;;;17.95;10.77;;;;;;;-2.75;100.00;103188.66;1043379;28;20646;-47
2024/01/28 00:53:43;;;;;;;20.42;10.40;;;;;;;-2.65;100.00;103189.94;1044116;28;20380;-48
2024/01/28 00:54:15;;;;;;;17.70;11.40;;;;;;;-2.54;100.00;103185.03;1046130;28;20397;-47
2024/01/28 00:54:47;;;;;;;19.17;11.55;;;;;;;-2.41;100.00;103175.72;1044598;28;20298;-48
2024/01/28 00:55:19;;;;;;;19.33;10.63;;;;;;;-2.16;100.00;103171.91;1047675;28;20809;-48
2024/01/28 00:55:50;;;;;;;19.35;10.68;;;;;;;-1.98;100.00;103176.19;1047832;28;20382;-48
2024/01/28 00:56:22;;;;;;;15.50;10.30;;;;;;;-2.20;100.00;103177.25;1047914;28;20290;-48
2024/01/28 00:56:54;;;;;;;22.35;12.30;;;;;;;-2.15;100.00;103176.22;1045867;28;20429;-47
2024/01/28 00:57:25;;;;;;;28.38;11.38;;;;;;;-2.02;100.00;103175.50;1047898;28;20305;-48
2024/01/28 00:57:58;;;;;;;24.10;11.30;;;;;;;-2.03;100.00;103172.97;1047565;28;20303;-48
2024/01/28 00:58:30;;;;;;;12.52;9.57;;;;;;;-2.11;100.00;103169.91;1047918;28;20309;-47
2024/01/28 00:59:01;;;;;;;18.20;10.35;;;;;;;-2.30;100.00;103170.81;1047818;28;20305;-50
2024/01/28 00:59:33;;;;;;;19.60;12.20;;;;;;;-2.34;100.00;103171.88;1047432;28;20350;-49
2024/01/28 01:00:06;;;;;;;18.10;11.55;;;;;;;-2.43;100.00;103164.53;1047603;28;20325;-50
2024/01/28 01:00:40;;;;;;;13.73;10.52;;;;;;;-2.39;100.00;103165.22;1047354;28;20294;-47
2024/01/28 01:01:12;;;;;;;17.30;10.77;;;;;;;-2.38;100.00;103170.34;1047672;28;20661;-46
2024/01/28 01:01:44;;;;;;;13.82;10.35;;;;;;;-2.29;100.00;103167.28;1048113;28;20373;-48
2024/01/28 01:02:16;;;;;;;21.77;12.15;;;;;;;-2.36;100.00;103167.66;1047779;28;20654;-48
2024/01/28 01:02:48;;;;;;;16.65;10.85;;;;;;;-2.39;100.00;103166.06;1047677;28;20298;-48
2024/01/28 01:03:19;;;;;;;14.50;10.55;;;;;;;-2.37;100.00;103172.03;1047907;28;20347;-49
2024/01/28 01:03:51;;;;;;;16.20;10.45;;;;;;;-2.32;100.00;103171.81;1047445;28;20382;-48
2024/01/28 01:04:23;;;;;;;18.58;10.32;;;;;;;-2.55;100.00;103172.91;1047603;28;20941;-47
2024/01/28 01:04:55;;;;;;;17.63;11.10;;;;;;;-2.57;100.00;103172.16;1043140;28;20299;-48
2024/01/28 01:05:26;;;;;;;13.80;9.68;;;;;;;-2.79;100.00;103167.09;1043089;28;22331;-47
2024/01/28 01:05:58;;;;;;;17.38;10.18;;;;;;;-2.68;100.00;103164.00;1043032;28;20287;-49
2024/01/28 01:06:30;;;;;;;29.75;10.60;;;;;;;-2.42;100.00;103162.75;1044248;28;20963;-48
2024/01/28 01:07:02;;;;;;;29.98;12.38;;;;;;;-2.43;100.00;103169.75;1041243;28;20376;-48
2024/01/28 01:07:34;;;;;;;15.48;10.88;;;;;;;-2.40;100.00;103169.59;1043313;28;20828;-48
2024/01/28 01:08:05;;;;;;;23.05;12.13;;;;;;;-2.38;100.00;103167.75;1043385;28;20382;-48
2024/01/28 01:08:37;;;;;;;13.43;10.60;;;;;;;-2.43;100.00;103169.75;1039837;28;20327;-48
2024/01/28 01:09:09;;;;;;;14.55;10.63;;;;;;;-2.62;100.00;103168.94;1043435;28;20310;-48
2024/01/28 01:09:41;;;;;;;17.85;10.10;;;;;;;-2.56;100.00;103166.00;1043265;28;20315;-47
2024/01/28 01:10:14;;;;;;;21.30;11.32;;;;;;;-2.57;100.00;103161.72;1044032;28;20299;-48
2024/01/28 01:10:45;;;;;;;16.30;9.95;;;;;;;-2.58;100.00;103160.03;1043181;28;20360;-47
2024/01/28 01:11:17;;;;;;;22.98;10.90;;;;;;;-2.62;100.00;103164.56;1043758;28;20353;-47
2024/01/28 01:11:48;;;;;;;15.07;10.88;;;;;;;-2.59;100.00;103164.41;1043789;28;20299;-48
2024/01/28 01:12:20;;;;;;;16.13;9.82;;;;;;;-2.45;100.00;103160.28;1043757;28;20299;-49
2024/01/28 01:12:52;;;;;;;20.67;11.13;;;;;;;-2.33;100.00;103160.53;1047246;28;20313;-48
2024/01/28 01:13:23;;;;;;;15.60;11.23;;;;;;;-2.31;100.00;103169.13;1047556;28;20302;-47
2024/01/28 01:13:55;;;;;;;17.60;11.55;;;;;;;-2.23;100.00;103164.38;1047781;28;20369;-50
2024/01/28 01:14:26;;;;;;;16.38;10.90;;;;;;;-2.22;100.00;103163.44;1048053;28;20321;-48
2024/01/28 01:14:58;;;;;;;20.20;9.52;;;;;;;-2.19;100.00;103163.31;1047951;28;20675;-48
2024/01/28 01:15:30;;;;;;;18.40;9.93;;;;;;;-2.12;100.00;103153.41;1048021;28;20302;-49
2024/01/28 01:16:01;;;;;;;22.52;11.20;;;;;;;-2.03;100.00;103162.53;1048345;28;20338;-48
2024/01/28 01:16:33;;;;;;;22.00;10.18;;;;;;;-1.98;100.00;103161.38;1047818;28;20348;-48
2024/01/28 01:17:05;;;;;;;20.60;11.85;;;;;;;-2.06;100.00;103165.31;1047701;28;20649;-48
2024/01/28 01:17:36;;;;;;;19.65;10.93;;;;;;;-2.07;100.00;103166.22;1047626;28;20298;-50
2024/01/28 01:18:08;;;;;;;23.90;12.50;;;;;;;-1.96;100.00;103163.91;1047993;28;20440;-48
2024/01/28 01:18:40;;;;;;;18.45;10.27;;;;;;;-1.91;100.00;103164.53;1047549;28;20775;-49
2024/01/28 01:19:12;;;;;;;23.13;11.45;;;;;;;-1.95;100.00;103170.81;1047687;28;20290;-48
2024/01/28 01:19:44;;;;;;;25.30;10.48;;;;;;;-1.93;100.00;103167.19;1048073;28;20298;-48
2024/01/28 01:20:17;;;;;;;20.52;11.45;;;;;;;-1.87;100.00;103168.69;1048104;28;20294;-50
2024/01/28 01:20:50;;;;;;;17.40;10.75;;;;;;;-1.76;100.00;103170.72;1043111;28;20318;-47
2024/01/28 01:21:22;;;;;;;25.05;11.80;;;;;;;-1.74;100.00;103169.72;1043679;28;20307;-47
2024/01/28 01:21:53;;;;;;;22.40;10.57;;;;;;;-1.79;100.00;103163.91;1042783;28;20744;-48
2024/01/28 01:22:25;;;;;;;18.10;10.55;;;;;;;-1.94;100.00;103168.13;1043735;28;20299;-49
2024/01/28 01:22:58;;;;;;;26.85;12.07;;;;;;;-1.91;100.00;103175.00;1047509;28;20316;-47
2024/01/28 01:23:30;;;;;;;21.45;10.23;;;;;;;-1.98;100.00;103171.81;1047830;28;20381;-47
2024/01/28 01:24:01;;;;;;;26.27;10.93;;;;;;;-2.00;100.00;103178.03;1047609;28;20303;-49
2024/01/28 01:24:33;;;;;;;20.98;11.10;;;;;;;-1.99;100.00;103179.72;1047957;28;20290;-47
2024/01/28 01:25:05;;;;;;;25.05;10.93;;;;;;;-2.00;100.00;103172.81;1047939;28;20298;-48
2024/01/28 01:25:37;;;;;;;28.08;11.75;;;;;;;-2.02;100.00;103177.28;1048281;28;20298;-50
2024/01/28 01:26:09;;;;;;;17.98;11.30;;;;;;;-2.02;100.00;103177.28;1047886;28;20787;-47
2024/01/28 01:26:41;;;;;;;23.15;11.55;;;;;;;-1.99;100.00;103174.50;1047868;28;20663;-49
2024/01/28 01:27:13;;;;;;;21.50;10.60;;;;;;;-1.97;100.00;103185.72;1047814;28;20498;-49
2024/01/28 01:27:45;;;;;;;15.75;10.52;;;;;;;-2.13;100.00;103177.81;1047669;28;20302;-47
2024/01/28 01:28:17;;;;;;;20.30;10.73;;;;;;;-2.28;100.00;103178.56;1047761;28;20310;-48
2024/01/28 01:28:49;;;;;;;18.95;10.20;;;;;;;-2.36;100.00;103178.94;1047875;28;20302;-48
2024/01/28 01:29:21;;;;;;;21.90;12.30;;;;;;;-2.27;100.00;103181.09;1047716;28;20338;-48
2024/01/28 01:29:53;;;;;;;26.98;11.48;;;;;;;-2.31;100.00;103184.78;1047554;28;20305;-47
2024/01/28 01:30:25;;;;;;;15.70;10.82;;;;;;;-2.27;100.00;103175.88;1047667;28;20353;-48
2024/01/28 01:30:56;;;;;;;14.70;9.98;;;;;;;-2.16;100.00;103171.91;1047833;28;20298;-50
2024/01/28 01:31:28;;;;;;;19.23;10.88;;;;;;;-2.00;100.00;103184.13;1047566;28;20333;-49
2024/01/28 01:31:59;;;;;;;21.13;10.75;;;;;;;-1.82;100.00;103177.13;1047961;28;20653;-47
2024/01/28 01:32:31;;;;;;;23.08;10.35;;;;;;;-1.70;100.00;103171.25;1047621;28;20291;-47
2024/01/28 01:33:03;;;;;;;23.33;9.75;;;;;;;-1.63;100.00;103169.19;1047650;28;20680;-50
2024/01/28 01:33:35;;;;;;;23.58;10.60;;;;;;;-1.53;100.00;103172.16;1047929;28;20298;-47
2024/01/28 01:34:07;;;;;;;17.00;10.40;;;;;;;-1.54;100.00;103170.47;1047481;28;20298;-48
2024/01/28 01:34:39;;;;;;;26.83;11.85;;;;;;;-1.52;100.00;103169.47;1047814;28;20780;-47
2024/01/28 01:35:14;;;;;;;31.33;11.05;;;;;;;-1.56;100.00;103174.00;1048160;28;20657;-48
2024/01/28 01:35:46;;;;;;;15.70;9.63;;;;;;;-1.56;100.00;103168.78;1047610;28;20297;-47
2024/01/28 01:36:19;;;;;;;18.60;10.50;;;;;;;-1.54;100.00;103170.47;1043740;28;20303;-49
2024/01/28 01:36:51;;;;;;;19.60;9.50;;;;;;;-1.57;100.00;103167.09;1043823;28;20295;-49
2024/01/28 01:37:23;;;;;;;21.40;10.82;;;;;;;-1.56;100.00;103166.19;1039387;28;20361;-48
2024/01/28 01:37:54;;;;;;;15.07;9.98;;;;;;;-1.51;100.00;103170.31;1035651;28;20304;-47
2024/01/28 01:38:26;;;;;;;22.27;12.38;;;;;;;-1.59;100.00;103174.19;1039330;28;20300;-49
2024/01/28 01:38:57;;;;;;;21.15;9.82;;;;;;;-1.62;100.00;103170.88;1039218;28;20891;-48
2024/01/28 01:39:30;;;;;;;19.30;10.43;;;;;;;-1.62;100.00;103168.28;1043665;28;20298;-47
2024/01/28 01:40:03;;;;;;;21.13;11.82;;;;;;;-1.62;100.00;103158.66;1047703;28;20804;-50
2024/01/28 01:40:35;;;;;;;19.70;10.05;;;;;;;-1.61;100.00;103157.75;1047599;28;20317;-47
2024/01/28 01:41:07;;;;;;;18.45;12.05;;;;;;;-1.65;100.00;103166.63;1047891;28;20310;-48
2024/01/28 01:41:38;;;;;;;16.30;10.10;;;;;;;-1.69;100.00;103162.50;1047663;28;20338;-49
2024/01/28 01:42:10;;;;;;;18.17;11.15;;;;;;;-1.72;100.00;103165.28;1045942;28;20294;-48
2024/01/28 01:42:43;;;;;;;24.67;11.20;;;;;;;-1.75;100.00;103165.44;1047467;28;20298;-47
2024/01/28 01:43:15;;;;;;;22.50;10.60;;;;;;;-1.88;100.00;103167.00;1047451;28;20310;-48
2024/01/28 01:43:47;;;;;;;19.10;10.23;;;;;;;-1.86;100.00;103165.16;1043398;28;20404;-51
2024/01/28 01:44:20;;;;;;;15.10;9.25;;;;;;;-1.82;100.00;103158.00;1042897;28;20725;-50
2024/01/28 01:44:52;;;;;;;19.05;10.30;;;;;;;-1.91;100.00;103169.78;1039408;28;20303;-48
2024/01/28 01:45:23;;;;;;;17.77;11.30;;;;;;;-1.89;100.00;103157.47;1039533;28;20361;-49
2024/01/28 01:45:55;;;;;;;22.67;9.82;;;;;;;-1.91;100.00;103157.56;1043224;28;20307;-49
2024/01/28 01:46:27;;;;;;;21.60;9.27;;;;;;;-1.93;100.00;103159.38;1039971;28;20482;-49
2024/01/28 01:46:59;;;;;;;14.90;9.02;;;;;;;-1.96;100.00;103158.69;1039133;28;20304;-48
2024/01/28 01:47:31;;;;;;;18.48;9.63;;;;;;;-2.06;100.00;103163.53;1035299;28;20311;-47
2024/01/28 01:48:06;;;;;;;20.15;11.05;;;;;;;-2.08;100.00;103157.56;1035816;28;20297;-48
2024/01/28 01:48:38;;;;;;;23.13;9.25;;;;;;;-2.18;100.00;103153.72;1036352;28;20796;-47
2024/01/28 01:49:10;;;;;;;18.33;9.25;;;;;;;-2.17;100.00;103157.19;1036503;28;20837;-47
2024/01/28 01:49:43;;;;;;;14.70;9.25;;;;;;;-2.17;100.00;103154.56;1039251;28;20376;-47
2024/01/28 01:50:16;;;;;;;19.25;9.27;;;;;;;-2.26;100.00;103153.22;1038933;28;20765;-49
2024/01/28 01:50:48;;;;;;;18.85;9.43;;;;;;;-2.25;100.00;103155.75;1043723;28;20343;-48
2024/01/28 01:51:21;;;;;;;18.45;10.65;;;;;;;-2.22;100.00;103158.22;1047870;28;20646;-48
2024/01/28 01:51:53;;;;;;;14.00;9.27;;;;;;;-2.25;100.00;103155.75;1042442;28;20307;-47
2024/01/28 01:52:25;;;;;;;18.95;9.77;;;;;;;-2.18;100.00;103145.88;1042984;28;20306;-48
2024/01/28 01:52:56;;;;;;;23.40;10.10;;;;;;;-2.02;100.00;103159.00;1043206;28;20562;-47
2024/01/28 01:53:28;;;;;;;19.05;8.88;;;;;;;-1.89;100.00;103149.63;1043821;28;20304;-47
2024/01/28 01:54:02;;;;;;;26.88;10.25;;;;;;;-1.75;100.00;103146.31;1047788;28;20295;-48
2024/01/28 01:54:34;;;;;;;21.77;10.07;;;;;;;-1.68;100.00;103148.50;1043431;28;20306;-48
2024/01/28 01:55:06;;;;;;;15.43;9.60;;;;;;;-1.67;100.00;103152.81;1043422;28;20319;-47
2024/01/28 01:55:39;;;;;;;22.98;9.73;;;;;;;-1.64;100.00;103144.84;1035459;28;20819;-47
2024/01/28 01:56:11;;;;;;;23.23;9.27;;;;;;;-1.61;100.00;103144.66;1032282;28;20293;-49
2024/01/28 01:56:44;;;;;;;21.73;10.70;;;;;;;-1.61;100.00;103151.66;1032732;28;20783;-48
2024/01/28 01:57:16;;;;;;;17.85;9.57;;;;;;;-1.60;100.00;103148.97;1035347;28;20309;-47
2024/01/28 01:57:48;;;;;;;23.92;10.57;;;;;;;-1.62;100.00;103149.97;1043961;28;20366;-48
2024/01/28 01:58:19;;;;;;;13.85;9.20;;;;;;;-1.66;100.00;103149.28;1042927;28;20307;-48
2024/01/28 01:58:53;;;;;;;20.70;10.38;;;;;;;-1.70;100.00;103146.91;1042586;28;20520;-49
2024/01/28 01:59:24;;;;;;;17.98;10.07;;;;;;;-1.83;100.00;103148.47;1039111;28;20343;-47
2024/01/28 01:59:56;;;;;;;15.70;9.60;;;;;;;-1.79;100.00;103150.00;1035425;28;20758;-48
2024/01/28 02:00:28;;;;;;;25.20;10.68;;;;;;;-1.78;100.00;103142.09;1039349;28;20300;-47
2024/01/28 02:01:01;;;;;;;30.48;10.98;;;;;;;-1.83;100.00;103144.09;1038691;28;20287;-49
2024/01/28 02:01:34;;;;;;;17.92;10.43;;;;;;;-1.89;100.00;103144.41;1043506;28;20855;-47
2024/01/28 02:02:09;;;;;;;20.13;10.35;;;;;;;-1.90;100.00;103142.72;1041984;28;20375;-49
2024/01/28 02:02:43;;;;;;;15.70;10.25;;;;;;;-1.84;100.00;103149.41;1044068;28;20645;-48
2024/01/28 02:03:15;;;;;;;15.93;10.50;;;;;;;-1.95;100.00;103147.31;1043759;28;20792;-50
2024/01/28 02:03:47;;;;;;;22.63;11.20;;;;;;;-1.98;100.00;103143.09;1043778;28;20300;-50
2024/01/28 02:04:19;;;;;;;21.58;10.05;;;;;;;-1.98;100.00;103144.88;1038971;28;20402;-48
2024/01/28 02:04:51;;;;;;;24.08;11.48;;;;;;;-2.07;100.00;103142.72;1034718;28;20297;-47
2024/01/28 02:05:22;;;;;;;13.27;10.13;;;;;;;-2.09;100.00;103136.75;1034652;28;20391;-50
2024/01/28 02:05:54;;;;;;;23.75;11.27;;;;;;;-1.95;100.00;103136.88;1033723;28;20323;-48
2024/01/28 02:06:27;;;;;;;22.05;10.43;;;;;;;-1.96;100.00;103143.84;1039552;28;20300;-48
2024/01/28 02:06:59;;;;;;;21.85;11.02;;;;;;;-1.90;100.00;103140.97;1042958;28;20303;-48
2024/01/28 02:07:30;;;;;;;24.83;10.65;;;;;;;-1.92;100.00;103144.53;1043150;28;20314;-47
2024/01/28 02:08:02;;;;;;;18.52;10.63;;;;;;;-1.93;100.00;103142.84;1043787;28;20287;-48
2024/01/28 02:08:34;;;;;;;17.75;10.00;;;;;;;-1.99;100.00;103133.56;1043734;28;20298;-49
2024/01/28 02:09:06;;;;;;;15.68;9.40;;;;;;;-2.02;100.00;103148.56;1043706;28;20294;-47
2024/01/28 02:09:38;;;;;;;19.33;9.40;;;;;;;-2.13;100.00;103140.44;1043523;28;20303;-48
2024/01/28 02:10:10;;;;;;;22.02;10.88;;;;;;;-2.14;100.00;103141.34;1042307;28;20338;-47
2024/01/28 02:10:42;;;;;;;15.02;10.77;;;;;;;-2.01;100.00;103143.25;1043042;28;20321;-47
2024/01/28 02:11:14;;;;;;;23.95;10.60;;;;;;;-1.96;100.00;103140.41;1040546;28;20315;-46
2024/01/28 02:11:46;;;;;;;15.60;9.40;;;;;;;-2.00;100.00;103147.56;1043266;28;20295;-47
2024/01/28 02:12:18;;;;;;;15.27;9.50;;;;;;;-2.00;100.00;103144.94;1042673;28;20310;-48
2024/01/28 02:12:50;;;;;;;15.23;8.90;;;;;;;-1.97;100.00;103146.53;1039286;28;20322;-48
2024/01/28 02:13:22;;;;;;;15.18;9.35;;;;;;;-2.05;100.00;103146.09;1039254;28;20382;-48
2024/01/28 02:13:54;;;;;;;15.55;9.02;;;;;;;-1.98;100.00;103148.31;1039049;28;20296;-47
2024/01/28 02:14:29;;;;;;;19.73;10.20;;;;;;;-2.04;100.00;103150.41;1039549;28;20303;-48
2024/01/28 02:15:06;;;;;;;16.23;9.63;;;;;;;-2.07;100.00;103145.34;1043423;28;20291;-47
2024/01/28 02:15:38;;;;;;;22.95;9.85;;;;;;;-2.16;100.00;103151.03;1043379;28;20631;-47
2024/01/28 02:16:10;;;;;;;19.45;10.00;;;;;;;-2.13;100.00;103150.88;1041812;28;20323;-48
2024/01/28 02:16:42;;;;;;;14.68;9.43;;;;;;;-2.10;100.00;103145.50;1039320;28;20839;-48
2024/01/28 02:17:13;;;;;;;14.57;8.55;;;;;;;-1.97;100.00;103141.31;1038929;28;20399;-50
2024/01/28 02:17:45;;;;;;;17.20;9.68;;;;;;;-1.88;100.00;103140.88;1039361;28;20668;-48
2024/01/28 02:18:17;;;;;;;22.70;9.48;;;;;;;-1.94;100.00;103135.94;1043134;28;20291;-48
2024/01/28 02:18:48;;;;;;;23.83;10.23;;;;;;;-1.88;100.00;103140.88;1042971;28;20299;-47
2024/01/28 02:19:21;;;;;;;17.42;10.90;;;;;;;-1.87;100.00;103137.34;1042839;28;20308;-47
2024/01/28 02:19:52;;;;;;;28.38;10.52;;;;;;;-1.83;100.00;103138.03;1043165;28;20310;-48
2024/01/28 02:20:24;;;;;;;21.00;9.63;;;;;;;-1.89;100.00;103133.97;1043071;28;20305;-49
2024/01/28 02:20:56;;;;;;;16.45;9.40;;;;;;;-1.96;100.00;103133.41;1043323;28;20295;-49
2024/01/28 02:21:27;;;;;;;22.95;9.15;;;;;;;-1.90;100.00;103132.28;1043310;28;20292;-49
2024/01/28 02:21:59;;;;;;;15.35;8.75;;;;;;;-1.93;100.00;103133.25;1043012;28;20311;-47
2024/01/28 02:22:31;;;;;;;23.55;10.80;;;;;;;-1.95;100.00;103126.41;1039058;28;20798;-50
2024/01/28 02:23:04;;;;;;;14.32;8.48;;;;;;;-1.93;100.00;103138.47;1038511;28;20385;-49
2024/01/28 02:23:36;;;;;;;14.10;9.35;;;;;;;-1.97;100.00;103138.72;1038450;28;20311;-46
2024/01/28 02:24:07;;;;;;;18.23;8.57;;;;;;;-1.91;100.00;103136.66;1039111;28;20705;-47
2024/01/28 02:24:39;;;;;;;19.10;8.73;;;;;;;-1.92;100.00;103137.59;1038658;28;20806;-48